sensor_id;sensor_type;location;lat;lon;timestamp;pressure;altitude;pressure_sealevel;temperature;humidity
13314;BME280;6725;48.112;11.604;2023-04-01T00:01:24;94035.00;;;8.54;100.00
13314;BME280;6725;48.112;11.604;2023-04-01T00:03:49;94027.84;;;8.60;100.00
13314;BME280;6725;48.112;11.604;2023-04-01T00:06:16;94023.44;;;8.50;100.00
13314;BME280;6725;48.112;11.604;2023-04-01T00:08:42;94028.88;;;8.50;100.00
13314;BME280;6725;48.112;11.604;2023-04-01T00:11:08;94022.41;;;8.44;100.00
13314;BME280;6725;48.112;11.604;2023-04-01T00:13:33;94019.69;;;8.44;100.00
13314;BME280;6725;48.112;11.604;2023-04-01T00:15:59;94024.44;;;8.40;100.00
13314;BME280;6725;48.112;11.604;2023-04-01T00:18:26;94000.66;;;8.44;100.00
13314;BME280;6725;48.112;11.604;2023-04-01T00:20:52;94002.69;;;8.40;100.00
13314;BME280;6725;48.112;11.604;2023-04-01T00:23:19;93997.91;;;8.44;100.00
13314;BME280;6725;48.112;11.604;2023-04-01T00:25:45;94000.38;;;8.39;100.00
13314;BME280;6725;48.112;11.604;2023-04-01T00:28:15;93996.41;;;8.43;100.00
13314;BME280;6725;48.112;11.604;2023-04-01T00:30:41;93996.03;;;8.41;100.00
13314;BME280;6725;48.112;11.604;2023-04-01T00:33:06;93989.16;;;8.37;100.00
13314;BME280;6725;48.112;11.604;2023-04-01T00:35:32;93989.59;;;8.35;100.00
13314;BME280;6725;48.112;11.604;2023-04-01T00:37:58;93983.63;;;8.24;100.00
13314;BME280;6725;48.112;11.604;2023-04-01T00:40:35;93985.22;;;8.22;100.00
13314;BME280;6725;48.112;11.604;2023-04-01T00:43:02;93991.44;;;8.22;100.00
13314;BME280;6725;48.112;11.604;2023-04-01T00:45:37;93984.91;;;8.16;100.00
13314;BME280;6725;48.112;11.604;2023-04-01T00:50:42;93981.88;;;8.14;100.00
13314;BME280;6725;48.112;11.604;2023-04-01T00:53:09;93979.16;;;8.14;100.00
13314;BME280;6725;48.112;11.604;2023-04-01T00:55:37;93985.34;;;8.15;100.00
13314;BME280;6725;48.112;11.604;2023-04-01T00:58:07;93982.19;;;8.16;100.00
13314;BME280;6725;48.112;11.604;2023-04-01T01:00:35;93967.44;;;8.17;100.00
13314;BME280;6725;48.112;11.604;2023-04-01T01:03:01;93971.25;;;8.20;100.00
13314;BME280;6725;48.112;11.604;2023-04-01T01:05:43;93970.03;;;8.24;100.00
13314;BME280;6725;48.112;11.604;2023-04-01T01:08:19;93968.84;;;8.25;100.00
13314;BME280;6725;48.112;11.604;2023-04-01T01:10:49;93967.31;;;8.24;100.00
13314;BME280;6725;48.112;11.604;2023-04-01T01:16:25;93970.19;;;8.33;100.00
13314;BME280;6725;48.112;11.604;2023-04-01T01:19:03;93981.69;;;8.41;100.00
13314;BME280;6725;48.112;11.604;2023-04-01T01:22:16;93980.81;;;8.44;100.00
13314;BME280;6725;48.112;11.604;2023-04-01T01:27:22;93988.75;;;8.54;100.00
13314;BME280;6725;48.112;11.604;2023-04-01T01:38:01;94001.53;;;8.57;100.00
13314;BME280;6725;48.112;11.604;2023-04-01T01:40:29;94005.34;;;8.60;100.00
13314;BME280;6725;48.112;11.604;2023-04-01T01:42:59;93994.19;;;8.54;100.00
13314;BME280;6725;48.112;11.604;2023-04-01T01:45:28;93988.34;;;8.56;100.00
13314;BME280;6725;48.112;11.604;2023-04-01T01:47:56;93996.25;;;8.50;100.00
13314;BME280;6725;48.112;11.604;2023-04-01T01:50:23;93986.19;;;8.47;100.00
13314;BME280;6725;48.112;11.604;2023-04-01T01:52:50;93975.66;;;8.49;100.00
13314;BME280;6725;48.112;11.604;2023-04-01T01:55:36;93977.69;;;8.45;100.00
13314;BME280;6725;48.112;11.604;2023-04-01T02:00:38;93973.78;;;8.46;100.00
13314;BME280;6725;48.112;11.604;2023-04-01T02:03:05;93977.69;;;8.45;100.00
13314;BME280;6725;48.112;11.604;2023-04-01T02:05:31;93973.03;;;8.46;100.00
13314;BME280;6725;48.112;11.604;2023-04-01T02:10:34;93991.28;;;8.45;100.00
13314;BME280;6725;48.112;11.604;2023-04-01T02:13:05;93993.94;;;8.49;100.00
13314;BME280;6725;48.112;11.604;2023-04-01T02:15:36;93997.66;;;8.55;100.00
13314;BME280;6725;48.112;11.604;2023-04-01T02:18:03;94001.69;;;8.50;100.00
13314;BME280;6725;48.112;11.604;2023-04-01T02:20:30;93996.25;;;8.50;100.00
13314;BME280;6725;48.112;11.604;2023-04-01T02:22:56;94008.28;;;8.49;100.00
13314;BME280;6725;48.112;11.604;2023-04-01T02:25:30;94002.44;;;8.51;100.00
13314;BME280;6725;48.112;11.604;2023-04-01T02:27:59;93996.41;;;8.43;100.00
13314;BME280;6725;48.112;11.604;2023-04-01T02:30:27;93999.44;;;8.45;100.00
13314;BME280;6725;48.112;11.604;2023-04-01T02:32:53;94010.31;;;8.45;100.00
13314;BME280;6725;48.112;11.604;2023-04-01T02:35:18;94008.81;;;8.44;100.00
13314;BME280;6725;48.112;11.604;2023-04-01T02:37:45;94002.94;;;8.46;100.00
13314;BME280;6725;48.112;11.604;2023-04-01T02:40:14;94014.94;;;8.48;100.00
13314;BME280;6725;48.112;11.604;2023-04-01T02:42:40;94013.41;;;8.47;100.00
13314;BME280;6725;48.112;11.604;2023-04-01T02:45:06;94011.88;;;8.46;100.00
13314;BME280;6725;48.112;11.604;2023-04-01T02:47:32;94001.31;;;8.48;100.00
13314;BME280;6725;48.112;11.604;2023-04-01T02:49:57;94010.16;;;8.52;100.00
13314;BME280;6725;48.112;11.604;2023-04-01T02:52:30;94012.22;;;8.48;100.00
13314;BME280;6725;48.112;11.604;2023-04-01T02:54:56;94019.16;;;8.49;100.00
13314;BME280;6725;48.112;11.604;2023-04-01T02:57:23;94025.03;;;8.48;100.00
13314;BME280;6725;48.112;11.604;2023-04-01T02:59:48;94030.56;;;8.44;100.00
13314;BME280;6725;48.112;11.604;2023-04-01T03:02:15;94026.66;;;8.45;100.00
13314;BME280;6725;48.112;11.604;2023-04-01T03:04:40;94024.75;;;8.42;100.00
13314;BME280;6725;48.112;11.604;2023-04-01T03:07:06;94029.78;;;8.44;100.00
13314;BME280;6725;48.112;11.604;2023-04-01T03:09:31;94029.09;;;8.40;100.00
13314;BME280;6725;48.112;11.604;2023-04-01T03:11:57;94031.50;;;8.38;100.00
13314;BME280;6725;48.112;11.604;2023-04-01T03:14:22;94024.25;;;8.31;100.00
13314;BME280;6725;48.112;11.604;2023-04-01T03:16:48;94029.69;;;8.31;100.00
13314;BME280;6725;48.112;11.604;2023-04-01T03:19:13;94040.22;;;8.29;100.00
13314;BME280;6725;48.112;11.604;2023-04-01T03:21:38;94029.00;;;8.27;100.00
13314;BME280;6725;48.112;11.604;2023-04-01T03:24:04;94016.84;;;8.32;100.00
13314;BME280;6725;48.112;11.604;2023-04-01T03:26:30;94022.72;;;8.30;100.00
13314;BME280;6725;48.112;11.604;2023-04-01T03:28:55;94035.63;;;8.26;100.00
13314;BME280;6725;48.112;11.604;2023-04-01T03:31:22;94024.41;;;8.24;100.00
13314;BME280;6725;48.112;11.604;2023-04-01T03:33:47;94017.91;;;8.18;100.00
13314;BME280;6725;48.112;11.604;2023-04-01T03:36:12;94028.09;;;8.14;100.00
13314;BME280;6725;48.112;11.604;2023-04-01T03:38:40;94033.13;;;8.16;100.00
13314;BME280;6725;48.112;11.604;2023-04-01T03:41:06;94032.84;;;8.10;100.00
13314;BME280;6725;48.112;11.604;2023-04-01T03:43:32;94036.72;;;8.09;100.00
13314;BME280;6725;48.112;11.604;2023-04-01T03:45:57;94033.31;;;8.05;100.00
13314;BME280;6725;48.112;11.604;2023-04-01T03:48:24;94037.47;;;7.94;100.00
13314;BME280;6725;48.112;11.604;2023-04-01T03:50:50;94036.19;;;7.98;100.00
13314;BME280;6725;48.112;11.604;2023-04-01T03:53:16;94046.22;;;8.01;100.00
13314;BME280;6725;48.112;11.604;2023-04-01T03:55:41;94044.19;;;8.05;100.00
13314;BME280;6725;48.112;11.604;2023-04-01T03:58:07;94042.34;;;8.02;100.00
13314;BME280;6725;48.112;11.604;2023-04-01T04:00:33;94034.50;;;8.04;100.00
13314;BME280;6725;48.112;11.604;2023-04-01T04:02:59;94038.41;;;8.03;100.00
13314;BME280;6725;48.112;11.604;2023-04-01T04:05:25;94044.56;;;8.07;100.00
13314;BME280;6725;48.112;11.604;2023-04-01T04:07:51;94036.91;;;8.02;100.00
13314;BME280;6725;48.112;11.604;2023-04-01T04:10:16;94038.97;;;7.95;100.00
13314;BME280;6725;48.112;11.604;2023-04-01T04:12:42;94035.56;;;7.91;100.00
13314;BME280;6725;48.112;11.604;2023-04-01T04:15:08;94034.88;;;7.87;100.00
13314;BME280;6725;48.112;11.604;2023-04-01T04:17:34;94027.66;;;7.80;100.00
13314;BME280;6725;48.112;11.604;2023-04-01T04:19:59;94025.69;;;7.81;100.00
13314;BME280;6725;48.112;11.604;2023-04-01T04:22:25;94027.19;;;7.82;100.00
13314;BME280;6725;48.112;11.604;2023-04-01T04:24:50;94033.78;;;7.84;100.00
13314;BME280;6725;48.112;11.604;2023-04-01T04:27:16;94021.56;;;7.92;100.00
13314;BME280;6725;48.112;11.604;2023-04-01T04:29:41;94020.72;;;7.95;100.00
13314;BME280;6725;48.112;11.604;2023-04-01T04:32:06;94019.41;;;8.03;100.00
13314;BME280;6725;48.112;11.604;2023-04-01T04:34:32;94019.41;;;8.03;100.00
13314;BME280;6725;48.112;11.604;2023-04-01T04:36:57;94020.59;;;8.02;100.00
13314;BME280;6725;48.112;11.604;2023-04-01T04:39:23;94029.06;;;8.04;100.00
13314;BME280;6725;48.112;11.604;2023-04-01T04:41:48;94036.44;;;8.04;100.00
13314;BME280;6725;48.112;11.604;2023-04-01T04:44:14;94032.28;;;7.99;100.00
13314;BME280;6725;48.112;11.604;2023-04-01T04:46:39;94042.34;;;8.02;100.00
13314;BME280;6725;48.112;11.604;2023-04-01T04:49:05;94050.00;;;8.07;100.00
13314;BME280;6725;48.112;11.604;2023-04-01T04:51:31;94049.22;;;8.07;100.00
13314;BME280;6725;48.112;11.604;2023-04-01T04:53:59;94039.94;;;8.04;100.00
13314;BME280;6725;48.112;11.604;2023-04-01T04:56:25;94046.06;;;8.08;100.00
13314;BME280;6725;48.112;11.604;2023-04-01T04:58:51;94049.47;;;8.12;100.00
13314;BME280;6725;48.112;11.604;2023-04-01T05:01:17;94055.28;;;8.14;100.00
13314;BME280;6725;48.112;11.604;2023-04-01T05:03:43;94048.91;;;8.21;100.00
13314;BME280;6725;48.112;11.604;2023-04-01T05:06:11;94047.69;;;8.25;100.00
13314;BME280;6725;48.112;11.604;2023-04-01T05:08:36;94054.31;;;8.24;100.00
13314;BME280;6725;48.112;11.604;2023-04-01T05:11:06;94052.63;;;8.30;100.00
13314;BME280;6725;48.112;11.604;2023-04-01T05:13:34;94056.88;;;8.31;100.00
13314;BME280;6725;48.112;11.604;2023-04-01T05:16:00;94056.31;;;8.40;100.00
13314;BME280;6725;48.112;11.604;2023-04-01T05:18:25;94062.09;;;8.42;100.00
13314;BME280;6725;48.112;11.604;2023-04-01T05:20:53;94066.19;;;8.50;100.00
13314;BME280;6725;48.112;11.604;2023-04-01T05:23:19;94066.97;;;8.50;100.00
13314;BME280;6725;48.112;11.604;2023-04-01T05:25:47;94067.56;;;8.58;100.00
13314;BME280;6725;48.112;11.604;2023-04-01T05:28:12;94069.81;;;8.63;100.00
13314;BME280;6725;48.112;11.604;2023-04-01T05:30:42;94083.66;;;8.68;100.00
13314;BME280;6725;48.112;11.604;2023-04-01T05:33:08;94083.06;;;8.77;100.00
13314;BME280;6725;48.112;11.604;2023-04-01T05:35:33;94085.56;;;8.87;100.00
13314;BME280;6725;48.112;11.604;2023-04-01T05:37:59;94089.66;;;8.95;100.00
13314;BME280;6725;48.112;11.604;2023-04-01T05:40:24;94084.72;;;8.90;100.00
13314;BME280;6725;48.112;11.604;2023-04-01T05:42:50;94102.25;;;9.05;100.00
13314;BME280;6725;48.112;11.604;2023-04-01T05:45:15;94108.78;;;9.56;100.00
13314;BME280;6725;48.112;11.604;2023-04-01T05:47:41;94096.31;;;10.16;100.00
13314;BME280;6725;48.112;11.604;2023-04-01T05:50:08;94112.47;;;10.64;100.00
13314;BME280;6725;48.112;11.604;2023-04-01T05:52:34;94132.69;;;10.79;100.00
13314;BME280;6725;48.112;11.604;2023-04-01T05:54:59;94127.78;;;11.24;100.00
13314;BME280;6725;48.112;11.604;2023-04-01T05:57:25;94125.03;;;11.49;100.00
13314;BME280;6725;48.112;11.604;2023-04-01T05:59:51;94123.59;;;11.82;100.00
13314;BME280;6725;48.112;11.604;2023-04-01T06:02:17;94129.28;;;11.75;100.00
13314;BME280;6725;48.112;11.604;2023-04-01T06:04:42;94137.19;;;12.07;100.00
13314;BME280;6725;48.112;11.604;2023-04-01T06:07:13;94142.88;;;12.34;100.00
13314;BME280;6725;48.112;11.604;2023-04-01T06:09:39;94140.53;;;12.45;100.00
13314;BME280;6725;48.112;11.604;2023-04-01T06:12:25;94136.34;;;12.53;100.00
13314;BME280;6725;48.112;11.604;2023-04-01T06:20:47;94145.56;;;11.91;100.00
13314;BME280;6725;48.112;11.604;2023-04-01T06:23:40;94146.34;;;12.25;100.00
13314;BME280;6725;48.112;11.604;2023-04-01T06:31:36;94144.47;;;12.87;100.00
13314;BME280;6725;48.112;11.604;2023-04-01T06:34:29;94151.50;;;13.49;100.00
13314;BME280;6725;48.112;11.604;2023-04-01T06:37:23;94149.03;;;13.51;100.00
13314;BME280;6725;48.112;11.604;2023-04-01T06:40:10;94147.63;;;13.07;100.00
13314;BME280;6725;48.112;11.604;2023-04-01T06:47:52;94151.06;;;13.20;100.00
13314;BME280;6725;48.112;11.604;2023-04-01T06:50:32;94154.03;;;12.39;100.00
13314;BME280;6725;48.112;11.604;2023-04-01T06:53:09;94154.22;;;12.45;100.00
13314;BME280;6725;48.112;11.604;2023-04-01T06:55:55;94140.13;;;12.77;100.00
13314;BME280;6725;48.112;11.604;2023-04-01T06:58:25;94149.63;;;12.85;100.00
13314;BME280;6725;48.112;11.604;2023-04-01T07:00:54;94155.94;;;13.16;100.00
13314;BME280;6725;48.112;11.604;2023-04-01T07:03:29;94156.81;;;14.01;100.00
13314;BME280;6725;48.112;11.604;2023-04-01T07:06:03;94151.63;;;14.03;100.00
13314;BME280;6725;48.112;11.604;2023-04-01T07:08:31;94164.03;;;14.80;100.00
13314;BME280;6725;48.112;11.604;2023-04-01T07:11:08;94160.81;;;14.18;100.00
13314;BME280;6725;48.112;11.604;2023-04-01T07:13:53;94158.41;;;13.23;100.00
13314;BME280;6725;48.112;11.604;2023-04-01T07:19:01;94162.66;;;12.72;100.00
13314;BME280;6725;48.112;11.604;2023-04-01T07:21:55;94166.00;;;12.33;100.00
13314;BME280;6725;48.112;11.604;2023-04-01T07:24:26;94161.06;;;11.94;100.00
13314;BME280;6725;48.112;11.604;2023-04-01T07:26:56;94160.13;;;12.43;100.00
13314;BME280;6725;48.112;11.604;2023-04-01T07:29:22;94147.56;;;12.46;100.00
13314;BME280;6725;48.112;11.604;2023-04-01T07:34:25;94150.91;;;14.30;100.00
13314;BME280;6725;48.112;11.604;2023-04-01T07:37:02;94151.53;;;14.43;100.00
13314;BME280;6725;48.112;11.604;2023-04-01T07:39:43;94148.38;;;15.63;100.00
13314;BME280;6725;48.112;11.604;2023-04-01T07:45:30;94135.50;;;15.69;100.00
13314;BME280;6725;48.112;11.604;2023-04-01T07:50:30;94151.03;;;14.89;100.00
13314;BME280;6725;48.112;11.604;2023-04-01T07:58:33;94175.81;;;15.81;100.00
13314;BME280;6725;48.112;11.604;2023-04-01T08:01:35;94158.50;;;15.57;100.00
13314;BME280;6725;48.112;11.604;2023-04-01T08:04:17;94168.47;;;14.68;100.00
13314;BME280;6725;48.112;11.604;2023-04-01T08:06:51;94165.88;;;14.56;100.00
13314;BME280;6725;48.112;11.604;2023-04-01T08:09:58;94149.78;;;13.91;100.00
13314;BME280;6725;48.112;11.604;2023-04-01T08:18:43;94167.00;;;13.43;100.00
13314;BME280;6725;48.112;11.604;2023-04-01T08:21:21;94166.78;;;13.59;100.00
13314;BME280;6725;48.112;11.604;2023-04-01T08:23:48;94168.63;;;13.71;100.00
13314;BME280;6725;48.112;11.604;2023-04-01T08:26:32;94154.63;;;13.87;100.00
13314;BME280;6725;48.112;11.604;2023-04-01T08:29:05;94170.69;;;13.98;100.00
13314;BME280;6725;48.112;11.604;2023-04-01T08:32:03;94167.84;;;14.28;100.00
13314;BME280;6725;48.112;11.604;2023-04-01T08:34:36;94156.25;;;14.78;100.00
13314;BME280;6725;48.112;11.604;2023-04-01T08:37:11;94152.28;;;16.89;100.00
13314;BME280;6725;48.112;11.604;2023-04-01T08:39:47;94144.63;;;17.86;96.92
13314;BME280;6725;48.112;11.604;2023-04-01T08:47:56;94141.34;;;15.62;100.00
13314;BME280;6725;48.112;11.604;2023-04-01T08:50:55;94137.88;;;15.85;100.00
13314;BME280;6725;48.112;11.604;2023-04-01T08:53:47;94149.81;;;14.90;100.00
13314;BME280;6725;48.112;11.604;2023-04-01T09:07:11;94153.25;;;17.30;91.69
13314;BME280;6725;48.112;11.604;2023-04-01T09:09:55;94147.00;;;17.44;91.60
13314;BME280;6725;48.112;11.604;2023-04-01T09:13:25;94143.63;;;16.43;97.41
13314;BME280;6725;48.112;11.604;2023-04-01T09:15:37;94157.44;;;15.87;99.35
13314;BME280;6725;48.112;11.604;2023-04-01T09:20:57;94137.47;;;15.78;100.00
13314;BME280;6725;48.112;11.604;2023-04-01T09:42:13;94124.34;;;15.31;100.00
13314;BME280;6725;48.112;11.604;2023-04-01T09:45:01;94118.88;;;15.22;100.00
13314;BME280;6725;48.112;11.604;2023-04-01T09:50:57;94113.31;;;15.49;100.00
13314;BME280;6725;48.112;11.604;2023-04-01T09:54:01;94098.22;;;15.68;100.00
13314;BME280;6725;48.112;11.604;2023-04-01T10:12:03;94097.13;;;16.75;87.17
13314;BME280;6725;48.112;11.604;2023-04-01T10:20:55;94111.13;;;15.53;96.21
13314;BME280;6725;48.112;11.604;2023-04-01T10:26:44;94110.66;;;15.13;100.00
13314;BME280;6725;48.112;11.604;2023-04-01T10:29:30;94101.69;;;14.95;100.00
13314;BME280;6725;48.112;11.604;2023-04-01T10:35:29;94100.53;;;15.28;100.00
13314;BME280;6725;48.112;11.604;2023-04-01T10:38:39;94092.72;;;15.27;100.00
13314;BME280;6725;48.112;11.604;2023-04-01T10:49:16;94105.25;;;14.77;100.00
13314;BME280;6725;48.112;11.604;2023-04-01T11:06:04;94105.84;;;13.91;100.00
13314;BME280;6725;48.112;11.604;2023-04-01T11:12:08;94113.34;;;14.00;100.00
13314;BME280;6725;48.112;11.604;2023-04-01T11:14:59;94120.16;;;13.68;100.00
13314;BME280;6725;48.112;11.604;2023-04-01T11:26:36;94126.88;;;13.27;100.00
13314;BME280;6725;48.112;11.604;2023-04-01T11:29:05;94137.81;;;13.18;100.00
13314;BME280;6725;48.112;11.604;2023-04-01T11:34:13;94138.44;;;13.22;100.00
13314;BME280;6725;48.112;11.604;2023-04-01T11:39:32;94142.03;;;13.50;100.00
13314;BME280;6725;48.112;11.604;2023-04-01T11:44:51;94136.53;;;13.41;100.00
13314;BME280;6725;48.112;11.604;2023-04-01T11:47:33;94134.63;;;13.20;100.00
13314;BME280;6725;48.112;11.604;2023-04-01T11:50:26;94152.22;;;13.10;100.00
13314;BME280;6725;48.112;11.604;2023-04-01T11:55:46;94172.13;;;12.03;100.00
13314;BME280;6725;48.112;11.604;2023-04-01T11:58:23;94194.03;;;11.90;100.00
13314;BME280;6725;48.112;11.604;2023-04-01T12:04:23;94212.09;;;11.38;100.00
13314;BME280;6725;48.112;11.604;2023-04-01T12:07:06;94200.41;;;11.25;100.00
13314;BME280;6725;48.112;11.604;2023-04-01T12:10:12;94189.69;;;11.18;100.00
13314;BME280;6725;48.112;11.604;2023-04-01T12:18:05;94171.41;;;11.15;100.00
13314;BME280;6725;48.112;11.604;2023-04-01T12:26:09;94183.94;;;10.87;100.00
13314;BME280;6725;48.112;11.604;2023-04-01T12:29:18;94188.03;;;11.08;100.00
13314;BME280;6725;48.112;11.604;2023-04-01T12:31:52;94174.22;;;10.99;100.00
13314;BME280;6725;48.112;11.604;2023-04-01T12:34:28;94168.44;;;10.84;100.00
13314;BME280;6725;48.112;11.604;2023-04-01T12:37:26;94174.72;;;10.69;100.00
13314;BME280;6725;48.112;11.604;2023-04-01T12:43:25;94169.72;;;10.39;100.00
13314;BME280;6725;48.112;11.604;2023-04-01T12:51:33;94168.75;;;10.17;100.00
13314;BME280;6725;48.112;11.604;2023-04-01T12:57:09;94161.13;;;10.12;100.00
13314;BME280;6725;48.112;11.604;2023-04-01T13:05:23;94172.41;;;10.26;100.00
13314;BME280;6725;48.112;11.604;2023-04-01T13:16:22;94165.38;;;10.13;100.00
13314;BME280;6725;48.112;11.604;2023-04-01T13:19:00;94165.03;;;10.10;100.00
13314;BME280;6725;48.112;11.604;2023-04-01T13:21:39;94168.63;;;10.07;100.00
13314;BME280;6725;48.112;11.604;2023-04-01T13:44:19;94176.97;;;9.84;100.00
13314;BME280;6725;48.112;11.604;2023-04-01T13:52:49;94173.09;;;9.98;100.00
13314;BME280;6725;48.112;11.604;2023-04-01T14:11:53;94159.66;;;10.36;100.00
13314;BME280;6725;48.112;11.604;2023-04-01T14:17:09;94166.69;;;10.37;100.00
13314;BME280;6725;48.112;11.604;2023-04-01T14:22:48;94174.56;;;10.19;100.00
13314;BME280;6725;48.112;11.604;2023-04-01T14:30:37;94169.06;;;10.35;100.00
13314;BME280;6725;48.112;11.604;2023-04-01T14:36:03;94177.38;;;10.44;100.00
13314;BME280;6725;48.112;11.604;2023-04-01T14:38:52;94181.53;;;10.48;100.00
13314;BME280;6725;48.112;11.604;2023-04-01T14:44:23;94165.00;;;10.27;100.00
13314;BME280;6725;48.112;11.604;2023-04-01T14:49:37;94172.38;;;10.55;100.00
13314;BME280;6725;48.112;11.604;2023-04-01T14:54:52;94174.25;;;10.58;100.00
13314;BME280;6725;48.112;11.604;2023-04-01T14:57:28;94162.91;;;10.59;100.00
13314;BME280;6725;48.112;11.604;2023-04-01T15:00:01;94168.75;;;10.45;100.00
13314;BME280;6725;48.112;11.604;2023-04-01T15:05:27;94165.66;;;10.31;100.00
13314;BME280;6725;48.112;11.604;2023-04-01T15:10:58;94162.63;;;10.41;100.00
13314;BME280;6725;48.112;11.604;2023-04-01T15:24:25;94185.03;;;10.20;100.00
13314;BME280;6725;48.112;11.604;2023-04-01T15:37:59;94208.97;;;10.86;100.00
13314;BME280;6725;48.112;11.604;2023-04-01T15:43:13;94211.28;;;11.00;100.00
13314;BME280;6725;48.112;11.604;2023-04-01T15:48:46;94223.63;;;10.92;100.00
13314;BME280;6725;48.112;11.604;2023-04-01T16:02:34;94222.00;;;11.07;100.00
13314;BME280;6725;48.112;11.604;2023-04-01T16:05:34;94213.91;;;11.03;100.00
13314;BME280;6725;48.112;11.604;2023-04-01T16:11:19;94231.53;;;11.15;100.00
13314;BME280;6725;48.112;11.604;2023-04-01T16:21:49;94224.28;;;10.96;100.00
13314;BME280;6725;48.112;11.604;2023-04-01T16:24:32;94236.72;;;10.97;100.00
13314;BME280;6725;48.112;11.604;2023-04-01T16:27:15;94212.69;;;10.92;100.00
13314;BME280;6725;48.112;11.604;2023-04-01T16:32:51;94231.47;;;10.90;100.00
13314;BME280;6725;48.112;11.604;2023-04-01T16:38:13;94230.16;;;10.82;100.00
13314;BME280;6725;48.112;11.604;2023-04-01T16:41:29;94231.88;;;10.76;100.00
13314;BME280;6725;48.112;11.604;2023-04-01T16:44:09;94235.22;;;10.67;100.00
13314;BME280;6725;48.112;11.604;2023-04-01T16:46:44;94225.41;;;10.70;100.00
13314;BME280;6725;48.112;11.604;2023-04-01T16:51:53;94239.09;;;10.54;100.00
13314;BME280;6725;48.112;11.604;2023-04-01T16:54:40;94244.75;;;10.47;100.00
13314;BME280;6725;48.112;11.604;2023-04-01T17:02:13;94245.94;;;10.46;100.00
13314;BME280;6725;48.112;11.604;2023-04-01T17:16:11;94256.56;;;10.28;100.00
13314;BME280;6725;48.112;11.604;2023-04-01T17:24:43;94273.59;;;10.32;100.00
13314;BME280;6725;48.112;11.604;2023-04-01T17:27:29;94273.59;;;10.32;100.00
13314;BME280;6725;48.112;11.604;2023-04-01T17:32:46;94276.69;;;10.34;100.00
13314;BME280;6725;48.112;11.604;2023-04-01T17:35:50;94281.78;;;10.32;100.00
13314;BME280;6725;48.112;11.604;2023-04-01T17:53:15;94298.84;;;10.20;100.00
13314;BME280;6725;48.112;11.604;2023-04-01T17:58:21;94292.72;;;10.16;100.00
13314;BME280;6725;48.112;11.604;2023-04-01T18:04:07;94294.94;;;10.21;100.00
13314;BME280;6725;48.112;11.604;2023-04-01T18:06:59;94294.94;;;10.21;100.00
13314;BME280;6725;48.112;11.604;2023-04-01T18:25:40;94316.38;;;10.02;100.00
13314;BME280;6725;48.112;11.604;2023-04-01T18:28:33;94321.31;;;9.91;100.00
13314;BME280;6725;48.112;11.604;2023-04-01T18:39:07;94322.03;;;9.60;100.00
13314;BME280;6725;48.112;11.604;2023-04-01T18:41:50;94340.06;;;9.54;100.00
13314;BME280;6725;48.112;11.604;2023-04-01T18:45:01;94340.06;;;9.54;100.00
13314;BME280;6725;48.112;11.604;2023-04-01T18:47:43;94334.00;;;9.46;100.00
13314;BME280;6725;48.112;11.604;2023-04-01T18:50:29;94342.59;;;9.45;100.00
13314;BME280;6725;48.112;11.604;2023-04-01T18:53:09;94348.97;;;9.38;100.00
13314;BME280;6725;48.112;11.604;2023-04-01T18:55:47;94349.59;;;9.46;100.00
13314;BME280;6725;48.112;11.604;2023-04-01T19:01:06;94347.28;;;9.44;100.00
13314;BME280;6725;48.112;11.604;2023-04-01T19:06:25;94355.81;;;9.46;100.00
13314;BME280;6725;48.112;11.604;2023-04-01T19:08:53;94358.69;;;9.39;100.00
13314;BME280;6725;48.112;11.604;2023-04-01T19:17:03;94364.31;;;9.48;100.00
13314;BME280;6725;48.112;11.604;2023-04-01T19:19:34;94352.41;;;9.42;100.00
13314;BME280;6725;48.112;11.604;2023-04-01T19:22:40;94354.47;;;9.35;100.00
13314;BME280;6725;48.112;11.604;2023-04-01T19:25:15;94355.25;;;9.35;100.00
13314;BME280;6725;48.112;11.604;2023-04-01T19:27:53;94350.75;;;9.29;100.00
13314;BME280;6725;48.112;11.604;2023-04-01T19:33:29;94368.66;;;9.26;100.00
13314;BME280;6725;48.112;11.604;2023-04-01T19:41:01;94373.97;;;9.33;100.00
13314;BME280;6725;48.112;11.604;2023-04-01T19:43:54;94381.03;;;9.31;100.00
13314;BME280;6725;48.112;11.604;2023-04-01T19:52:09;94386.34;;;9.18;100.00
13314;BME280;6725;48.112;11.604;2023-04-01T19:59:52;94386.88;;;9.10;100.00
13314;BME280;6725;48.112;11.604;2023-04-01T20:05:11;94387.81;;;9.03;100.00
13314;BME280;6725;48.112;11.604;2023-04-01T20:07:44;94394.03;;;9.04;100.00
13314;BME280;6725;48.112;11.604;2023-04-01T20:10:24;94410.50;;;8.97;100.00
13314;BME280;6725;48.112;11.604;2023-04-01T20:13:21;94403.56;;;8.92;100.00
13314;BME280;6725;48.112;11.604;2023-04-01T20:16:01;94411.16;;;8.81;100.00
13314;BME280;6725;48.112;11.604;2023-04-01T20:18:39;94405.00;;;8.77;100.00
13314;BME280;6725;48.112;11.604;2023-04-01T20:21:21;94409.25;;;8.78;100.00
13314;BME280;6725;48.112;11.604;2023-04-01T20:23:59;94407.34;;;8.75;100.00
13314;BME280;6725;48.112;11.604;2023-04-01T20:26:38;94398.50;;;8.71;100.00
13314;BME280;6725;48.112;11.604;2023-04-01T20:29:27;94403.94;;;8.71;100.00
13314;BME280;6725;48.112;11.604;2023-04-01T20:35:06;94413.28;;;8.70;100.00
13314;BME280;6725;48.112;11.604;2023-04-01T20:40:44;94413.28;;;8.70;100.00
13314;BME280;6725;48.112;11.604;2023-04-01T20:46:34;94416.00;;;8.70;100.00
13314;BME280;6725;48.112;11.604;2023-04-01T20:49:33;94414.81;;;8.71;100.00
13314;BME280;6725;48.112;11.604;2023-04-01T20:57:38;94425.66;;;8.75;100.00
13314;BME280;6725;48.112;11.604;2023-04-01T21:00:27;94427.97;;;8.76;100.00
13314;BME280;6725;48.112;11.604;2023-04-01T21:05:49;94435.00;;;8.74;100.00
13314;BME280;6725;48.112;11.604;2023-04-01T21:08:23;94427.97;;;8.76;100.00
13314;BME280;6725;48.112;11.604;2023-04-01T21:16:26;94425.25;;;8.76;100.00
13314;BME280;6725;48.112;11.604;2023-04-01T21:20:10;94425.66;;;8.75;100.00
13314;BME280;6725;48.112;11.604;2023-04-01T21:27:55;94424.16;;;8.70;100.00